Time;durP1;ratioP1;P1;durP2;ratioP2;P2;SDS_P1;SDS_P2;PMS_P1;PMS_P2;Temp;Humidity;BMP_temperature;BMP_pressure;BME280_temperature;BME280_humidity;BME280_pressure;Samples;Min_cycle;Max_cycle;Signal;HPM_P1;HPM_P2
2022/08/25 00:01:46;;;;;;;;;;;;;;;;;;6288112;22;19994;-83
2022/08/25 00:04:12;;;;;;;;;;;;;;;;;;6290303;22;19925;-83
2022/08/25 00:06:38;;;;;;;;;;;;;;;;;;6263437;22;19923;-83
2022/08/25 00:09:04;;;;;;;;;;;;;;;;;;6266283;22;20350;-83
2022/08/25 00:11:30;;;;;;;;;;;;;;;;;;6263231;22;19919;-83
2022/08/25 00:13:57;;;;;;;;;;;;;;;;;;6262975;22;19976;-83
2022/08/25 00:16:23;;;;;;;;;;;;;;;;;;6288877;22;19919;-83
2022/08/25 00:18:49;;;;;;;;;;;;;;;;;;6262591;22;19926;-83
2022/08/25 00:21:15;;;;;;;;;;;;;;;;;;6288841;22;19918;-83
2022/08/25 00:23:41;;;;;;;;;;;;;;;;;;6263163;22;20019;-83
2022/08/25 00:29:01;;;;;;;;;;;;;;;;;;6293447;22;19919;-83
2022/08/25 00:31:27;;;;;;;;;;;;;;;;;;6262979;22;20298;-83
2022/08/25 00:33:53;;;;;;;;;;;;;;;;;;6264780;22;20304;-83
2022/08/25 00:36:19;;;;;;;;;;;;;;;;;;6290880;22;20033;-83
2022/08/25 00:38:45;;;;;;;;;;;;;;;;;;6262709;22;20055;-83
2022/08/25 00:41:11;;;;;;;;;;;;;;;;;;6266015;22;20374;-83
2022/08/25 00:43:37;;;;;;;;;;;;;;;;;;6260569;22;19996;-83
2022/08/25 00:46:03;;;;;;;;;;;;;;;;;;6264283;22;20069;-83
2022/08/25 00:51:43;;;;;;;;;;;;;;;;;;6252518;22;19923;-83
2022/08/25 00:54:26;;;;;;;;;;;;;;;;;;6278162;22;19955;-83
2022/08/25 00:56:52;;;;;;;;;;;;;;;;;;6266435;22;19954;-83
2022/08/25 00:59:18;;;;;;;;;;;;;;;;;;6264445;22;19934;-83
2022/08/25 01:01:44;;;;;;;;;;;;;;;;;;6262835;22;20423;-83
2022/08/25 01:04:12;;;;;;;;;;;;;;;;;;6265158;22;20342;-83
2022/08/25 01:06:38;;;;;;;;;;;;;;;;;;6288308;22;19955;-83
2022/08/25 01:09:04;;;;;;;;;;;;;;;;;;6263897;22;20251;-83
2022/08/25 01:11:31;;;;;;;;;;;;;;;;;;6287948;22;19942;-83
2022/08/25 01:14:07;;;;;;;;;;;;;;;;;;6280257;22;20348;-83
2022/08/25 01:16:33;;;;;;;;;;;;;;;;;;6261156;22;19941;-83
2022/08/25 01:18:59;;;;;;;;;;;;;;;;;;6291346;22;19918;-83
2022/08/25 01:21:25;;;;;;;;;;;;;;;;;;6263699;22;19941;-83
2022/08/25 01:23:51;;;;;;;;;;;;;;;;;;6264872;22;19919;-83
2022/08/25 01:26:18;;;;;;;;;;;;;;;;;;6264169;22;19988;-82
2022/08/25 01:31:32;;;;;;;;;;;;;;;;;;6289784;22;19949;-83
2022/08/25 01:33:58;;;;;;;;;;;;;;;;;;6258184;22;20286;-83
2022/08/25 01:36:26;;;;;;;;;;;;;;;;;;6286668;22;19923;-83
2022/08/25 01:38:58;;;;;;;;;;;;;;;;;;6266526;22;20328;-83
2022/08/25 01:41:27;;;;;;;;;;;;;;;;;;6261099;22;19976;-83
2022/08/25 01:43:53;;;;;;;;;;;;;;;;;;6289336;22;19923;-83
2022/08/25 01:49:14;;;;;;;;;;;;;;;;;;6226904;22;19915;-83
2022/08/25 01:51:48;;;;;;;;;;;;;;;;;;6288920;22;19937;-83
2022/08/25 01:54:17;;;;;;;;;;;;;;;;;;6290414;22;19938;-83
2022/08/25 01:56:43;;;;;;;;;;;;;;;;;;6263402;22;19930;-83
2022/08/25 02:01:57;;;;;;;;;;;;;;;;;;6289090;22;19966;-83
2022/08/25 02:04:23;;;;;;;;;;;;;;;;;;6265683;22;20474;-82
2022/08/25 02:06:49;;;;;;;;;;;;;;;;;;6286398;22;19930;-83
2022/08/25 02:09:15;;;;;;;;;;;;;;;;;;6293698;22;19964;-83
2022/08/25 02:14:44;;;;;;;;;;;;;;;;;;6289996;22;19930;-83
2022/08/25 02:17:10;;;;;;;;;;;;;;;;;;6263350;22;19918;-83
2022/08/25 02:19:36;;;;;;;;;;;;;;;;;;6262400;22;20263;-83
2022/08/25 02:24:56;;;;;;;;;;;;;;;;;;6257330;22;20006;-83
2022/08/25 02:27:23;;;;;;;;;;;;;;;;;;6230986;22;19954;-83
2022/08/25 02:29:49;;;;;;;;;;;;;;;;;;6229899;22;19919;-83
2022/08/25 02:32:15;;;;;;;;;;;;;;;;;;6230952;22;19919;-83
2022/08/25 02:40:42;;;;;;;;;;;;;;;;;;6137745;22;19920;-83
2022/08/25 02:43:08;;;;;;;;;;;;;;;;;;6205210;22;19919;-83
2022/08/25 02:45:34;;;;;;;;;;;;;;;;;;6231322;22;19930;-83
2022/08/25 02:48:01;;;;;;;;;;;;;;;;;;6205949;22;19923;-83
2022/08/25 02:50:27;;;;;;;;;;;;;;;;;;6203186;22;19925;-83
2022/08/25 02:52:55;;;;;;;;;;;;;;;;;;6208348;22;20343;-83
2022/08/25 02:55:27;;;;;;;;;;;;;;;;;;6233614;22;19919;-82
2022/08/25 02:57:53;;;;;;;;;;;;;;;;;;6206437;22;19927;-83
2022/08/25 03:00:20;;;;;;;;;;;;;;;;;;6209103;22;19965;-83
2022/08/25 03:09:03;;;;;;;;;;;;;;;;;;6159715;23;19920;-83
2022/08/25 03:14:51;;;;;;;;;;;;;;;;;;6101517;23;20321;-83
2022/08/25 03:17:23;;;;;;;;;;;;;;;;;;6061600;23;19992;-83
2022/08/25 03:19:49;;;;;;;;;;;;;;;;;;6059718;23;19963;-83
2022/08/25 03:31:01;;;;;;;;;;;;;;;;;;6106424;23;19917;-83
2022/08/25 03:33:27;;;;;;;;;;;;;;;;;;6057292;23;19992;-83
2022/08/25 03:36:48;;;;;;;;;;;;;;;;;;6120371;23;19937;-83
2022/08/25 03:38:59;;;;;;;;;;;;;;;;;;6162982;23;19999;-83
2022/08/25 03:41:39;;;;;;;;;;;;;;;;;;;;;
2022/08/25 03:47:23;;;;;;;;;;;;;;;;;;6303708;22;20252;-83
2022/08/25 03:49:50;;;;;;;;;;;;;;;;;;6265560;22;19923;-83
2022/08/25 03:52:17;;;;;;;;;;;;;;;;;;6294510;22;19927;-83
2022/08/25 03:54:43;;;;;;;;;;;;;;;;;;6290371;22;19938;-83
2022/08/25 03:57:09;;;;;;;;;;;;;;;;;;6292537;22;20316;-83
2022/08/25 04:00:01;;;;;;;;;;;;;;;;;;6265280;22;20323;-82
2022/08/25 04:02:39;;;;;;;;;;;;;;;;;;6265143;22;20355;-85
2022/08/25 04:08:00;;;;;;;;;;;;;;;;;;6292292;22;20251;-82
2022/08/25 04:10:40;;;;;;;;;;;;;;;;;;6288573;22;19923;-83
2022/08/25 04:13:11;;;;;;;;;;;;;;;;;;6265658;22;19918;-83
2022/08/25 04:15:40;;;;;;;;;;;;;;;;;;6264217;22;20255;-83
2022/08/25 04:18:06;;;;;;;;;;;;;;;;;;6266124;22;20213;-83
2022/08/25 04:20:38;;;;;;;;;;;;;;;;;;6261627;22;19991;-83
2022/08/25 04:23:37;;;;;;;;;;;;;;;;;;6266351;22;19931;-83
2022/08/25 04:25:56;;;;;;;;;;;;;;;;;;6285838;22;19930;-83
2022/08/25 04:28:30;;;;;;;;;;;;;;;;;;6261734;22;19993;-84
2022/08/25 04:31:01;;;;;;;;;;;;;;;;;;6292144;22;19915;-83
2022/08/25 04:33:27;;;;;;;;;;;;;;;;;;6263498;22;19918;-83
2022/08/25 04:35:57;;;;;;;;;;;;;;;;;;6264943;22;20358;-82
2022/08/25 04:38:23;;;;;;;;;;;;;;;;;;6290012;22;19998;-82
2022/08/25 04:40:49;;;;;;;;;;;;;;;;;;6268128;22;19915;-82
2022/08/25 04:43:30;;;;;;;;;;;;;;;;;;6295179;22;19989;-82
2022/08/25 04:45:56;;;;;;;;;;;;;;;;;;6294240;22;20250;-82
2022/08/25 04:48:32;;;;;;;;;;;;;;;;;;6268869;22;19921;-83
2022/08/25 04:51:04;;;;;;;;;;;;;;;;;;6270040;22;20236;-82
2022/08/25 04:53:30;;;;;;;;;;;;;;;;;;6265821;22;19923;-82
2022/08/25 04:55:56;;;;;;;;;;;;;;;;;;6296343;22;19922;-82
2022/08/25 04:58:26;;;;;;;;;;;;;;;;;;6268164;22;19919;-82
2022/08/25 05:00:52;;;;;;;;;;;;;;;;;;6267494;22;19922;-82
2022/08/25 05:03:27;;;;;;;;;;;;;;;;;;6292730;22;20028;-82
2022/08/25 05:06:12;;;;;;;;;;;;;;;;;;6280471;22;20312;-83
2022/08/25 05:08:38;;;;;;;;;;;;;;;;;;6265165;22;19915;-82
2022/08/25 05:11:04;;;;;;;;;;;;;;;;;;6269644;22;19919;-82
2022/08/25 05:13:48;;;;;;;;;;;;;;;;;;6293593;22;19919;-83
2022/08/25 05:16:17;;;;;;;;;;;;;;;;;;6268337;22;20045;-85
2022/08/25 05:19:04;;;;;;;;;;;;;;;;;;6289715;22;20528;-85
2022/08/25 05:21:31;;;;;;;;;;;;;;;;;;6291739;22;19919;-86
2022/08/25 05:23:57;;;;;;;;;;;;;;;;;;6294693;22;19991;-85
2022/08/25 05:26:40;;;;;;;;;;;;;;;;;;;;;
2022/08/25 05:29:30;;;;;;;;;;;;;;;;;;6291210;22;19976;-85
2022/08/25 05:31:56;;;;;;;;;;;;;;;;;;6262574;22;19942;-84
2022/08/25 05:34:23;;;;;;;;;;;;;;;;;;6291498;22;20255;-83
2022/08/25 05:36:50;;;;;;;;;;;;;;;;;;6294930;22;20328;-83
2022/08/25 05:39:31;;;;;;;;;;;;;;;;;;6297505;22;20209;-84
2022/08/25 05:42:07;;;;;;;;;;;;;;;;;;6270899;22;20013;-83
2022/08/25 05:44:33;;;;;;;;;;;;;;;;;;6295495;22;20264;-84
2022/08/25 05:47:06;;;;;;;;;;;;;;;;;;6269965;22;19954;-84
2022/08/25 05:49:32;;;;;;;;;;;;;;;;;;6269791;22;19990;-84
2022/08/25 05:51:58;;;;;;;;;;;;;;;;;;6296976;22;20366;-84
2022/08/25 05:54:24;;;;;;;;;;;;;;;;;;6271202;22;19918;-84
2022/08/25 05:56:50;;;;;;;;;;;;;;;;;;6269386;22;20072;-83
2022/08/25 05:59:16;;;;;;;;;;;;;;;;;;6298939;22;20048;-84
2022/08/25 06:04:31;;;;;;;;;;;;;;;;;;6295173;22;19964;-84
2022/08/25 06:06:57;;;;;;;;;;;;;;;;;;6269594;22;19923;-84
2022/08/25 06:09:31;;;;;;;;;;;;;;;;;;6298346;22;19997;-84
2022/08/25 06:11:59;;;;;;;;;;;;;;;;;;6272910;22;19990;-84
2022/08/25 06:14:26;;;;;;;;;;;;;;;;;;6269059;22;19953;-84
2022/08/25 06:16:52;;;;;;;;;;;;;;;;;;6269854;22;20264;-84
2022/08/25 06:19:18;;;;;;;;;;;;;;;;;;6293869;22;19950;-84
2022/08/25 06:21:47;;;;;;;;;;;;;;;;;;6232039;23;20513;-84
2022/08/25 06:24:14;;;;;;;;;;;;;;;;;;6233447;23;19930;-84
2022/08/25 06:26:40;;;;;;;;;;;;;;;;;;6230215;23;19966;-83
2022/08/25 06:29:15;;;;;;;;;;;;;;;;;;6232341;23;20007;-83
2022/08/25 06:31:41;;;;;;;;;;;;;;;;;;6231208;23;19916;-84
2022/08/25 06:34:07;;;;;;;;;;;;;;;;;;6206734;23;19919;-84
2022/08/25 06:36:33;;;;;;;;;;;;;;;;;;6203788;23;20193;-84
2022/08/25 06:38:59;;;;;;;;;;;;;;;;;;6208802;23;19990;-84
2022/08/25 06:41:26;;;;;;;;;;;;;;;;;;6234250;23;19954;-84
2022/08/25 06:43:54;;;;;;;;;;;;;;;;;;6257883;22;20237;-83
2022/08/25 06:46:21;;;;;;;;;;;;;;;;;;6208608;23;19965;-83
2022/08/25 06:48:47;;;;;;;;;;;;;;;;;;6230728;23;20323;-83
2022/08/25 06:51:13;;;;;;;;;;;;;;;;;;6234839;23;19927;-84
2022/08/25 06:53:39;;;;;;;;;;;;;;;;;;6263682;22;19922;-83
2022/08/25 06:56:08;;;;;;;;;;;;;;;;;;6297667;22;19980;-84
2022/08/25 06:58:34;;;;;;;;;;;;;;;;;;6268249;22;19930;-84
2022/08/25 07:01:00;;;;;;;;;;;;;;;;;;6271413;22;19915;-83
2022/08/25 07:03:27;;;;;;;;;;;;;;;;;;6294199;22;19915;-84
2022/08/25 07:05:53;;;;;;;;;;;;;;;;;;6272483;22;19972;-84
2022/08/25 07:11:23;;;;;;;;;;;;;;;;;;6180393;22;19951;-84
2022/08/25 07:13:49;;;;;;;;;;;;;;;;;;6289663;22;19919;-84
2022/08/25 07:16:15;;;;;;;;;;;;;;;;;;6295818;22;19915;-84
2022/08/25 07:18:41;;;;;;;;;;;;;;;;;;6295915;22;19915;-84
2022/08/25 07:21:07;;;;;;;;;;;;;;;;;;6297693;22;19919;-84
2022/08/25 07:31:57;;;;;;;;;;;;;;;;;;6251745;22;19920;-83
2022/08/25 07:37:12;;;;;;;;;;;;;;;;;;6238249;22;19919;-83
2022/08/25 07:42:47;;;;;;;;;;;;;;;;;;6068611;22;20300;-84
2022/08/25 07:45:28;;;;;;;;;;;;;;;;;;;;;
2022/08/25 07:48:19;;;;;;;;;;;;;;;;;;;;;
2022/08/25 07:57:15;;;;;;;;;;;;;;;;;;6184547;23;19919;-84
2022/08/25 07:59:50;;;;;;;;;;;;;;;;;;6122501;23;19946;-84
2022/08/25 08:02:23;;;;;;;;;;;;;;;;;;6124270;23;19971;-84
2022/08/25 08:04:49;;;;;;;;;;;;;;;;;;6234586;22;19949;-85
2022/08/25 08:07:15;;;;;;;;;;;;;;;;;;6208962;22;20027;-84
2022/08/25 08:09:41;;;;;;;;;;;;;;;;;;6210207;22;19994;-84
2022/08/25 08:12:07;;;;;;;;;;;;;;;;;;6212880;22;19919;-85
2022/08/25 08:15:01;;;;;;;;;;;;;;;;;;;;;
2022/08/25 08:17:27;;;;;;;;;;;;;;;;;;6230567;22;19922;-85
2022/08/25 08:20:07;;;;;;;;;;;;;;;;;;6238666;22;19922;-85
2022/08/25 08:22:36;;;;;;;;;;;;;;;;;;6208247;22;20315;-84
2022/08/25 08:28:05;;;;;;;;;;;;;;;;;;6257682;22;20247;-84
2022/08/25 08:30:33;;;;;;;;;;;;;;;;;;6237053;22;20367;-84
2022/08/25 08:32:59;;;;;;;;;;;;;;;;;;6237776;22;20033;-84
2022/08/25 08:35:28;;;;;;;;;;;;;;;;;;6263670;22;20403;-84
2022/08/25 08:37:56;;;;;;;;;;;;;;;;;;6238375;22;19957;-84
2022/08/25 08:40:39;;;;;;;;;;;;;;;;;;6261461;22;20286;-85
2022/08/25 08:43:09;;;;;;;;;;;;;;;;;;6259758;22;21902;-85
2022/08/25 08:45:38;;;;;;;;;;;;;;;;;;6235310;22;19930;-84
2022/08/25 08:48:04;;;;;;;;;;;;;;;;;;6262814;22;20301;-85
2022/08/25 08:50:51;;;;;;;;;;;;;;;;;;6236379;22;19929;-85
2022/08/25 08:53:17;;;;;;;;;;;;;;;;;;6237823;22;20197;-85
2022/08/25 08:55:43;;;;;;;;;;;;;;;;;;6235683;22;20376;-85
2022/08/25 08:58:09;;;;;;;;;;;;;;;;;;6263082;22;19960;-85
2022/08/25 09:00:35;;;;;;;;;;;;;;;;;;6261533;22;20228;-85
2022/08/25 09:03:02;;;;;;;;;;;;;;;;;;6263682;22;19998;-84
2022/08/25 09:05:41;;;;;;;;;;;;;;;;;;6264561;22;20280;-85
2022/08/25 09:08:08;;;;;;;;;;;;;;;;;;6264715;22;19919;-85
2022/08/25 09:10:34;;;;;;;;;;;;;;;;;;6262913;22;20339;-85
2022/08/25 09:13:02;;;;;;;;;;;;;;;;;;6237498;22;20347;-85
2022/08/25 09:16:53;;;;;;;;;;;;;;;;;;6235351;22;19926;-84
2022/08/25 09:21:09;;;;;;;;;;;;;;;;;;6264321;22;19973;-85
2022/08/25 09:23:35;;;;;;;;;;;;;;;;;;6262351;22;19927;-85
2022/08/25 09:26:01;;;;;;;;;;;;;;;;;;6264728;22;19919;-85
2022/08/25 09:28:29;;;;;;;;;;;;;;;;;;6260762;22;20198;-85
2022/08/25 09:34:11;;;;;;;;;;;;;;;;;;6238714;22;19915;-85
2022/08/25 09:36:37;;;;;;;;;;;;;;;;;;6208465;22;19955;-85
2022/08/25 09:39:27;;;;;;;;;;;;;;;;;;6271220;22;19919;-85
2022/08/25 09:42:01;;;;;;;;;;;;;;;;;;6211955;22;19919;-85
2022/08/25 09:44:27;;;;;;;;;;;;;;;;;;6210665;22;19930;-85
2022/08/25 09:46:53;;;;;;;;;;;;;;;;;;6212241;22;19926;-85
2022/08/25 09:51:45;;;;;;;;;;;;;;;;;;6253424;22;19923;-84
2022/08/25 09:54:33;;;;;;;;;;;;;;;;;;;;;
2022/08/25 09:57:04;;;;;;;;;;;;;;;;;;6269654;22;19954;-84
2022/08/25 09:59:32;;;;;;;;;;;;;;;;;;6267167;22;19971;-84
2022/08/25 10:01:59;;;;;;;;;;;;;;;;;;6241088;22;19919;-84
2022/08/25 10:04:27;;;;;;;;;;;;;;;;;;6242450;22;19918;-84
2022/08/25 10:07:08;;;;;;;;;;;;;;;;;;6242991;22;19915;-85
2022/08/25 10:12:53;;;;;;;;;;;;;;;;;;6267109;22;19922;-84
2022/08/25 10:15:22;;;;;;;;;;;;;;;;;;6291356;22;19929;-85
2022/08/25 10:17:55;;;;;;;;;;;;;;;;;;6241034;22;19984;-84
2022/08/25 10:20:22;;;;;;;;;;;;;;;;;;6293596;22;19922;-84
2022/08/25 10:28:50;;;;;;;;;;;;;;;;;;6149932;23;19920;-84
2022/08/25 10:34:25;;;;;;;;;;;;;;;;;;6117845;23;20258;-84
2022/08/25 10:37:25;;;;;;;;;;;;;;;;;;;;;
2022/08/25 10:40:17;;;;;;;;;;;;;;;;;;6023895;23;19929;-84
2022/08/25 10:42:48;;;;;;;;;;;;;;;;;;5999235;23;19992;-84
2022/08/25 10:48:18;;;;;;;;;;;;;;;;;;6035382;23;19983;-85
2022/08/25 10:50:44;;;;;;;;;;;;;;;;;;6000567;23;19952;-85
2022/08/25 10:53:12;;;;;;;;;;;;;;;;;;6049362;23;19973;-84
2022/08/25 10:55:42;;;;;;;;;;;;;;;;;;6030662;23;19925;-84
2022/08/25 11:01:14;;;;;;;;;;;;;;;;;;6054990;23;19932;-84
2022/08/25 11:03:47;;;;;;;;;;;;;;;;;;6080356;23;19964;-84
2022/08/25 11:06:13;;;;;;;;;;;;;;;;;;6105097;23;19950;-84
2022/08/25 11:08:41;;;;;;;;;;;;;;;;;;6172836;23;20302;-85
2022/08/25 11:11:33;;;;;;;;;;;24.10;95.60;;;;;;6175052;23;19924;-85
2022/08/25 11:14:22;;;;;;;;;;;;;;;;;;6225299;22;19918;-85
2022/08/25 11:17:03;;;;;;;;;;;;;;;;;;6295382;22;19922;-85
2022/08/25 11:19:29;;;;;;;;;;;;;;;;;;6240736;22;19922;-85
2022/08/25 11:22:05;;;;;;;;;;;;;;;;;;;;;
2022/08/25 11:28:05;;;;;;;;;;;;;;;;;;6112100;23;20325;-84
2022/08/25 11:33:40;;;;;;;;;;;;;;;;;;6179186;23;19943;-84
2022/08/25 11:39:17;;;;;;;;;;;;;;;;;;6097741;22;20329;-85
2022/08/25 11:44:49;;;;;;;;;;;;;;;;;;6201478;22;19923;-85
2022/08/25 11:47:15;;;;;;;;;;;;;;;;;;6241418;22;19918;-84
2022/08/25 11:49:41;;;;;;;;;;;;;;;;;;6229800;22;20329;-84
2022/08/25 11:52:07;;;;;;;;;;;;;;;;;;6206629;23;19942;-84
2022/08/25 11:54:33;;;;;;;;;;;;;;;;;;6203857;23;20281;-84
2022/08/25 11:56:59;;;;;;;;;;;;;;;;;;6206228;23;19919;-85
2022/08/25 11:59:28;;;;;;;;;;;;;;;;;;6206229;23;20330;-85
2022/08/25 12:01:56;;;;;;;;;;;;;;;;;;6232149;23;19928;-84
2022/08/25 12:04:32;;;;;;;;;;;;;;;;;;;;;
2022/08/25 12:15:16;;;;;;;;;;;;;;;;;;6299655;22;19996;-84
2022/08/25 12:18:21;;;;;;;;;;;;;;;;;;;;;
2022/08/25 12:24:12;;;;;;;;;;;;;;;;;;6252453;22;19957;-83
2022/08/25 12:26:40;;;;;;;;;;;;;;;;;;6242293;22;19919;-83
2022/08/25 12:29:06;;;;;;;;;;;;;;;;;;6242598;22;19915;-84
2022/08/25 12:31:38;;;;;;;;;;;;;;;;;;6238124;22;19926;-83
2022/08/25 12:36:48;;;;;;;;;;;;;;;;;;6278919;22;19923;-84
2022/08/25 12:39:17;;;;;;;;;;;;;;;;;;6241287;22;20395;-83
2022/08/25 12:41:43;;;;;;;;;;;;;;;;;;6237947;22;19918;-83
2022/08/25 12:44:12;;;;;;;;;;;;;;;;;;6239009;22;19988;-83
2022/08/25 12:46:49;;;;;;;;;;;;;;;;;;6235411;22;19918;-83
2022/08/25 12:55:21;;;;;;;;;;;;;;;;;;6264408;22;19918;-84
2022/08/25 12:57:47;;;;;;;;;;;;;;;;;;6263089;22;20463;-84
2022/08/25 13:00:15;;;;;;;;;;;;;;;;;;6266045;22;19946;-84
2022/08/25 13:02:43;;;;;;;;;;;;;;;;;;6263501;22;19954;-83
2022/08/25 13:07:51;;;;;;;;;;;;;;;;;;6268647;22;19919;-83
2022/08/25 13:13:46;;;;;;;;;;;;;;;;;;6227269;22;20235;-83
2022/08/25 13:16:21;;;;;;;;;;;;;;;;;;6267521;22;19937;-83
2022/08/25 13:19:04;;;;;;;;;;;;;;;;;;6242711;22;19929;-83
2022/08/25 13:21:48;;;;;;;;;;;;;;;;;;6241144;22;19982;-84
2022/08/25 13:24:52;;;;;;;;;;;;;;;;;;6203307;23;19965;-84
2022/08/25 13:27:33;;;;;;;;;;;;;;;;;;6203542;23;19920;-84
2022/08/25 13:30:23;;;;;;;;;;;;;;;;;;6143874;23;20356;-83
2022/08/25 13:39:31;;;;;;;;;;;;;;;;;;;;;
2022/08/25 13:42:06;;;;;;;;;;;;;;;;;;6109562;23;19925;-84
2022/08/25 13:47:46;;;;;;;;;;;;;;;;;;;;;
2022/08/25 13:53:07;;;;;;;;;;;;;;;;;;6293183;22;19922;-84
2022/08/25 13:55:42;;;;;;;;;;;;;;;;;;6237385;22;20032;-83
2022/08/25 13:58:08;;;;;;;;;;;;;;;;;;6262589;22;20002;-84
2022/08/25 14:00:34;;;;;;;;;;;;;;;;;;6289039;22;20149;-84
2022/08/25 14:03:00;;;;;;;;;;;;;;;;;;6290203;22;19925;-83
2022/08/25 14:08:33;;;;;;;;;;;;;;;;;;6298880;22;19917;-84
2022/08/25 14:10:59;;;;;;;;;;;;;;;;;;6241672;22;19914;-84
2022/08/25 14:13:31;;;;;;;;;;;;;;;;;;6263904;22;20251;-84
2022/08/25 14:15:57;;;;;;;;;;;;;;;;;;6234195;22;19930;-84
2022/08/25 14:18:38;;;;;;;;;;;;;;;;;;6262840;22;19968;-84
2022/08/25 14:21:11;;;;;;;;;;;;;;;;;;6292721;22;19915;-83
2022/08/25 14:23:56;;;;;;;;;;;;;;;;;;6236909;22;19917;-84
2022/08/25 14:26:34;;;;;;;;;;;;;;;;;;6239347;22;20298;-84
2022/08/25 14:29:18;;;;;;;;;;;;;;;;;;6223361;22;20019;-84
2022/08/25 14:31:44;;;;;;;;;;;;;;;;;;6262679;22;20343;-83
2022/08/25 14:36:58;;;;;;;;;;;;;;;;;;6242843;22;19919;-84
2022/08/25 14:39:28;;;;;;;;;;;;;;;;;;6240540;22;20098;-84
2022/08/25 14:41:57;;;;;;;;;;;;;;;;;;6265786;22;19921;-84
2022/08/25 14:44:23;;;;;;;;;;;;;;;;;;6237911;22;19930;-84
2022/08/25 14:46:49;;;;;;;;;;;;;;;;;;6235447;22;20243;-83
2022/08/25 14:49:28;;;;;;;;;;;;;;;;;;6232195;22;20000;-84
2022/08/25 14:52:00;;;;;;;;;;;;;;;;;;6234656;22;20335;-83
2022/08/25 14:54:32;;;;;;;;;;;;;;;;;;6237790;22;20247;-83
2022/08/25 14:56:58;;;;;;;;;;;;;;;;;;6235074;22;19918;-83
2022/08/25 14:59:24;;;;;;;;;;;;;;;;;;6239396;22;19919;-83
2022/08/25 15:05:09;;;;;;;;;;;;;;;;;;;;;
2022/08/25 15:17:17;;;;;;;;;;;;;;;;;;6302353;22;19918;-84
2022/08/25 15:19:45;;;;;;;;;;;;;;;;;;6236015;22;20022;-84
2022/08/25 15:22:14;;;;;;;;;;;;;;;;;;6262630;22;19919;-84
2022/08/25 15:24:42;;;;;;;;;;;;;;;;;;6235725;22;20057;-84
2022/08/25 15:27:24;;;;;;;;;;;;;;;;;;6239362;22;20182;-84
2022/08/25 15:29:56;;;;;;;;;;;;;;;;;;6261508;22;19960;-84
2022/08/25 15:32:23;;;;;;;;;;;;;;;;;;6263735;22;19926;-84
2022/08/25 15:34:55;;;;;;;;;;;;;;;;;;6261866;22;20369;-84
2022/08/25 15:37:27;;;;;;;;;;;;;;;;;;6203487;23;20295;-84
2022/08/25 15:39:59;;;;;;;;;;;;;;;;;;6173823;23;19990;-84
2022/08/25 15:42:28;;;;;;;;;;;;;;;;;;6172490;23;19925;-84
2022/08/25 15:44:56;;;;;;;;;;;;;;;;;;6176814;23;19923;-84
2022/08/25 15:47:22;;;;;;;;;;;;;;;;;;6199561;23;19931;-84
2022/08/25 15:49:48;;;;;;;;;;;;;;;;;;6172925;23;19920;-84
2022/08/25 15:52:18;;;;;;;;;;;;;;;;;;6173306;23;19924;-84
2022/08/25 15:57:49;;;;;;;;;;;;;;;;;;6231786;23;20201;-83
2022/08/25 16:00:18;;;;;;;;;;;;;;;;;;6174697;22;19924;-84
2022/08/25 16:02:44;;;;;;;;;;;;;;;;;;6232307;22;19923;-83
2022/08/25 16:05:18;;;;;;;;;;;;;;;;;;6261646;22;19950;-83
2022/08/25 16:07:47;;;;;;;;;;;;;;;;;;6236043;22;19929;-83
2022/08/25 16:10:13;;;;;;;;;;;;;;;;;;6236188;22;19915;-83
2022/08/25 16:12:39;;;;;;;;;;;;;;;;;;6234409;22;20687;-84
2022/08/25 16:15:05;;;;;;;;;;;;;;;;;;6264098;22;19919;-84
2022/08/25 16:17:31;;;;;;;;;;;;;;;;;;6285726;22;19919;-84
2022/08/25 16:22:47;;;;;;;;;;;;;;;;;;6239598;22;19919;-84
2022/08/25 16:25:13;;;;;;;;;;;;;;;;;;6236255;22;19914;-84
2022/08/25 16:30:41;;;;;;;;;;;;;;;;;;6262176;22;19961;-85
2022/08/25 16:33:07;;;;;;;;;;;;;;;;;;6238479;22;19918;-84
2022/08/25 16:35:36;;;;;;;;;;;;;;;;;;6259078;22;19919;-83
2022/08/25 16:40:57;;;;;;;;;;;;;;;;;;6264514;22;20025;-84
2022/08/25 16:43:23;;;;;;;;;;;;;;;;;;6235708;22;19958;-84
2022/08/25 16:45:49;;;;;;;;;;;;;;;;;;6235061;22;19993;-84
2022/08/25 16:48:15;;;;;;;;;;;;;;;;;;6235600;22;19949;-84
2022/08/25 16:56:33;;;;;;;;;;;;;;;;;;6259961;22;19927;-84
2022/08/25 16:59:00;;;;;;;;;;;;;;;;;;6235705;22;20247;-84
2022/08/25 17:04:30;;;;;;;;;;;;;;;;;;6260680;22;19926;-83
2022/08/25 17:06:56;;;;;;;;;;;;;;;;;;6234796;22;19919;-83
2022/08/25 17:09:22;;;;;;;;;;;;;;;;;;6259162;22;20337;-84
2022/08/25 17:11:51;;;;;;;;;;;;;;;;;;6233500;22;19926;-84
2022/08/25 17:14:18;;;;;;;;;;;;;;;;;;6233826;22;19925;-83
2022/08/25 17:16:55;;;;;;;;;;;;;;;;;;6230510;22;20501;-83
2022/08/25 17:19:33;;;;;;;;;;;;;;;;;;6234360;22;19919;-84
2022/08/25 17:24:37;;;;;;;;;;;;;;;;;;6221791;22;19946;-85
2022/08/25 17:27:03;;;;;;;;;;;;;;;;;;6254985;22;19919;-85
2022/08/25 17:29:29;;;;;;;;;;;;;;;;;;6261551;22;19976;-85
2022/08/25 17:31:56;;;;;;;;;;;;;;;;;;6241334;22;19980;-85
2022/08/25 17:36:52;;;;;;;;;;;;;;;;;;6291298;22;19918;-85
2022/08/25 17:39:19;;;;;;;;;;;;;;;;;;6234552;22;20348;-86
2022/08/25 17:41:45;;;;;;;;;;;;;;;;;;6240138;22;19923;-83
2022/08/25 17:44:13;;;;;;;;;;;;;;;;;;6263760;22;20022;-85
2022/08/25 17:46:53;;;;;;;;;;;;;;;;;;6238677;22;20649;-85
2022/08/25 17:49:19;;;;;;;;;;;;;;;;;;6261410;22;19923;-83
2022/08/25 17:51:45;;;;;;;;;;;;;;;;;;6267153;22;19923;-84
2022/08/25 17:54:19;;;;;;;;;;;;;;;;;;6262916;22;20359;-83
2022/08/25 18:00:03;;;;;;;;;;;;;;;;;;6175676;23;19923;-90
2022/08/25 18:13:46;;;;;;;;;;;;;;;;;;6263658;22;19977;-88
2022/08/25 18:16:17;;;;;;;;;;;;;;;;;;6235377;22;19927;-89
2022/08/25 18:18:49;;;;;;;;;;;;;;;;;;6235732;22;20007;-90
2022/08/25 18:24:07;;;;;;;;;;;;;;;;;;6248328;22;19954;-89
2022/08/25 18:26:33;;;;;;;;;;;;;;;;;;6234586;22;19934;-90
2022/08/25 18:28:59;;;;;;;;;;;;;;;;;;6234705;22;19949;-90
2022/08/25 18:31:28;;;;;;;;;;;;;;;;;;6257643;22;20009;-89
2022/08/25 18:33:54;;;;;;;;;;;;;;;;;;6237889;22;20326;-90
2022/08/25 18:36:20;;;;;;;;;;;;;;;;;;6258554;22;20282;-89
2022/08/25 18:42:09;;;;;;;;;;;;;;;;;;;;;
2022/08/25 18:44:44;;;;;;;;;;;;;;;;;;6260835;22;19922;-89
2022/08/25 18:47:10;;;;;;;;;;;;;;;;;;6235233;22;20313;-90
2022/08/25 19:00:40;;;;;;;;;;;;;;;;;;6240880;22;19918;-88
2022/08/25 19:03:06;;;;;;;;;;;;;;;;;;6258351;22;20319;-89
2022/08/25 19:08:27;;;;;;;;;;;;;;;;;;6227096;22;20381;-89
2022/08/25 19:11:01;;;;;;;;;;;;;;;;;;6205532;22;20018;-88
2022/08/25 19:13:27;;;;;;;;;;;;;;;;;;6206480;22;19922;-89
2022/08/25 19:18:48;;;;;;;;;;;;;;;;;;6077712;23;20404;-89
2022/08/25 19:21:14;;;;;;;;;;;;;;;;;;6165644;23;20052;-89
2022/08/25 19:23:43;;;;;;;;;;;;;;;;;;6142937;23;19919;-89
2022/08/25 19:32:46;;;;;;;;;;;;;;;;;;6058046;23;19928;-88
2022/08/25 19:35:15;;;;;;;;;;;;;;;;;;6137408;23;19921;-89
2022/08/25 19:37:53;;;;;;;;;;;;;;;;;;6089036;23;20286;-84
2022/08/25 19:40:19;;;;;;;;;;;;;;;;;;6136910;23;19995;-84
2022/08/25 19:42:45;;;;;;;;;;;;;;;;;;6112823;23;19920;-84
2022/08/25 19:45:11;;;;;;;;;;;;;;;;;;6128925;22;20022;-82
2022/08/25 19:47:37;;;;;;;;;;;;;;;;;;6290530;22;19984;-85
2022/08/25 19:50:03;;;;;;;;;;;;;;;;;;6266093;22;19918;-85
2022/08/25 19:52:29;;;;;;;;;;;;;;;;;;6290417;22;19957;-85
2022/08/25 19:54:55;;;;;;;;;;;;;;;;;;6242786;22;19923;-85
2022/08/25 19:57:21;;;;;;;;;;;;;;;;;;6291530;22;19919;-84
2022/08/25 19:59:50;;;;;;;;;;;;;;;;;;6294706;22;19957;-85
2022/08/25 20:02:19;;;;;;;;;;;;;;;;;;6290897;22;19919;-85
2022/08/25 20:04:50;;;;;;;;;;;;;;;;;;6266538;22;19919;-85
2022/08/25 20:07:20;;;;;;;;;;;;;;;;;;6238282;22;19974;-85
2022/08/25 20:09:46;;;;;;;;;;;;;;;;;;6241445;22;19919;-85
2022/08/25 20:12:14;;;;;;;;;;;;;;;;;;6239387;22;19972;-85
2022/08/25 20:14:48;;;;;;;;;;;;;;;;;;6215292;22;20216;-84
2022/08/25 20:17:14;;;;;;;;;;;;;;;;;;6261155;22;19930;-85
2022/08/25 20:19:56;;;;;;;;;;;;;;;;;;6262913;22;19925;-85
2022/08/25 20:22:38;;;;;;;;;;;;;;;;;;6270216;22;19918;-85
2022/08/25 20:25:16;;;;;;;;;;;;;;;;;;6238910;22;20326;-84
2022/08/25 20:27:42;;;;;;;;;;;;;;;;;;6239567;22;19927;-84
2022/08/25 20:30:13;;;;;;;;;;;;;;;;;;6264486;22;19997;-84
2022/08/25 20:32:54;;;;;;;;;;;;;;;;;;6238721;22;19919;-84
2022/08/25 20:35:29;;;;;;;;;;;;;;;;;;6237361;22;19918;-85
2022/08/25 20:37:55;;;;;;;;;;;;;;;;;;6240018;22;19926;-84
2022/08/25 20:40:27;;;;;;;;;;;;;;;;;;6236629;22;20319;-84
2022/08/25 20:49:34;;;;;;;;;;;;;;;;;;6208576;23;20002;-96
2022/08/25 20:52:00;;;;;;;;;;;;;;;;;;6215574;22;19923;-94
2022/08/25 20:54:26;;;;;;;;;;;;;;;;;;6213593;22;20282;-96
2022/08/25 20:56:55;;;;;;;;;;;;;;;;;;6213529;22;19919;-96
2022/08/25 20:59:21;;;;;;;;;;;;;;;;;;6213068;22;20620;-96
2022/08/25 21:01:47;;;;;;;;;;;;;;;;;;6215682;22;20535;-95
2022/08/25 21:04:16;;;;;;;;;;;;;;;;;;6214596;22;19923;-96
2022/08/25 21:06:43;;;;;;;;;;;;;;;;;;6211529;22;19919;-96
2022/08/25 21:09:09;;;;;;;;;;;;;;;;;;6238159;22;19919;-96
2022/08/25 21:11:56;;;;;;;;;;;;;;;;;;6245543;22;19915;-94
2022/08/25 21:14:47;;;;;;;;;;;;;;;;;;6238805;22;20406;-95
2022/08/25 21:17:13;;;;;;;;;;;;;;;;;;6212698;22;19915;-94
2022/08/25 21:19:39;;;;;;;;;;;;;;;;;;6234980;22;19929;-96
2022/08/25 21:22:06;;;;;;;;;;;;;;;;;;6210977;22;19950;-95
2022/08/25 21:24:37;;;;;;;;;;;;;;;;;;6209454;22;19923;-95
2022/08/25 21:27:03;;;;;;;;;;;;;;;;;;6215261;22;19915;-95
2022/08/25 21:29:30;;;;;;;;;;;;;;;;;;6237095;22;19964;-94